Terminal Aerodrome Forecast
Issued by NWS

Home | Current Version | Previous Version | Text Only | Print | Product List | Glossary On
Versions: 1 2 3 4 5 6 7 8 9 10 11 12 13 14 15 16 17 18 19 20 21 22 23 24 25 26 27 28 29 30 31 32 33 34 35 36 37 38 39 40 41 42 43 44 45 46 47 48 49 50
028
FTUS42 KGSP 220901 AAD
TAFHKY
TAF AMD
KHKY 220901Z 2209/2306 06004KT 3SM BR OVC005
      TEMPO 2209/2213 1/2SM -SHRA FG OVC002
     FM221300 08004KT 1SM -SHRA BR OVC005
     FM221800 09005KT 2SM -SHRA BR OVC005 PROB30 2218/2224 1SM TSRA
      BR OVC003CB
     FM230000 09011KT 1SM TSRA BR OVC003CB=

USA.gov is the U.S. government's official web portal to all federal, state and local government web resources and services.